sensor_id;sensor_type;location;lat;lon;timestamp;P1;durP1;ratioP1;P2;durP2;ratioP2
26177;SDS011;13924;47.670;10.310;2024-01-25T00:00:38;4.3;;;0.6;;
26177;SDS011;13924;47.670;10.310;2024-01-25T00:15:39;0.8;;;0.3;;
26177;SDS011;13924;47.670;10.310;2024-01-25T00:30:40;0.8;;;0.5;;
26177;SDS011;13924;47.670;10.310;2024-01-25T00:45:42;2.1;;;0.7;;
26177;SDS011;13924;47.670;10.310;2024-01-25T01:00:47;5.1;;;0.9;;
26177;SDS011;13924;47.670;10.310;2024-01-25T01:15:43;3.2;;;0.9;;
26177;SDS011;13924;47.670;10.310;2024-01-25T01:30:43;2.7;;;0.6;;
26177;SDS011;13924;47.670;10.310;2024-01-25T01:45:44;4.6;;;1.4;;
26177;SDS011;13924;47.670;10.310;2024-01-25T02:00:51;5.0;;;0.9;;
26177;SDS011;13924;47.670;10.310;2024-01-25T02:01:27;3.5;;;0.8;;
26177;SDS011;13924;47.670;10.310;2024-01-25T02:15:46;2.3;;;0.7;;
26177;SDS011;13924;47.670;10.310;2024-01-25T02:30:47;4.5;;;0.5;;
26177;SDS011;13924;47.670;10.310;2024-01-25T02:45:47;4.1;;;0.8;;
26177;SDS011;13924;47.670;10.310;2024-01-25T03:00:48;1.5;;;0.5;;
26177;SDS011;13924;47.670;10.310;2024-01-25T03:15:48;0.8;;;0.3;;
26177;SDS011;13924;47.670;10.310;2024-01-25T03:30:49;2.0;;;0.5;;
26177;SDS011;13924;47.670;10.310;2024-01-25T03:45:49;2.7;;;0.6;;
26177;SDS011;13924;47.670;10.310;2024-01-25T04:00:50;3.4;;;0.8;;
26177;SDS011;13924;47.670;10.310;2024-01-25T04:15:51;4.8;;;0.6;;
26177;SDS011;13924;47.670;10.310;2024-01-25T04:30:52;1.8;;;0.5;;
26177;SDS011;13924;47.670;10.310;2024-01-25T04:45:52;0.5;;;0.3;;
26177;SDS011;13924;47.670;10.310;2024-01-25T05:00:53;0.9;;;0.5;;
26177;SDS011;13924;47.670;10.310;2024-01-25T07:13:02;2.2;;;1.0;;
26177;SDS011;13924;47.670;10.310;2024-01-25T07:28:05;3.2;;;1.2;;
26177;SDS011;13924;47.670;10.310;2024-01-25T07:43:02;2.5;;;1.1;;
26177;SDS011;13924;47.670;10.310;2024-01-25T07:58:03;8.5;;;6.2;;
26177;SDS011;13924;47.670;10.310;2024-01-25T08:13:04;0.5;;;0.2;;
26177;SDS011;13924;47.670;10.310;2024-01-25T08:28:05;1.0;;;0.5;;
26177;SDS011;13924;47.670;10.310;2024-01-25T08:43:06;2.3;;;0.6;;
26177;SDS011;13924;47.670;10.310;2024-01-25T08:58:06;0.8;;;0.6;;
26177;SDS011;13924;47.670;10.310;2024-01-25T09:13:08;1.7;;;0.8;;
26177;SDS011;13924;47.670;10.310;2024-01-25T09:28:07;1.2;;;0.8;;
26177;SDS011;13924;47.670;10.310;2024-01-25T09:43:08;1.0;;;0.6;;
26177;SDS011;13924;47.670;10.310;2024-01-25T09:58:09;0.6;;;0.4;;
26177;SDS011;13924;47.670;10.310;2024-01-25T10:13:11;1.2;;;0.2;;
26177;SDS011;13924;47.670;10.310;2024-01-25T10:28:09;1.0;;;0.9;;
26177;SDS011;13924;47.670;10.310;2024-01-25T10:43:10;0.5;;;0.5;;
26177;SDS011;13924;47.670;10.310;2024-01-25T10:58:13;0.6;;;0.5;;
26177;SDS011;13924;47.670;10.310;2024-01-25T11:13:13;3.0;;;0.9;;
26177;SDS011;13924;47.670;10.310;2024-01-25T11:28:13;0.5;;;0.4;;
26177;SDS011;13924;47.670;10.310;2024-01-25T11:43:13;0.5;;;0.4;;
26177;SDS011;13924;47.670;10.310;2024-01-25T11:58:14;1.3;;;0.7;;
26177;SDS011;13924;47.670;10.310;2024-01-25T12:13:14;0.8;;;0.6;;
26177;SDS011;13924;47.670;10.310;2024-01-25T12:28:14;4.0;;;0.6;;
26177;SDS011;13924;47.670;10.310;2024-01-25T12:43:16;1.1;;;0.9;;
26177;SDS011;13924;47.670;10.310;2024-01-25T12:58:17;0.7;;;0.7;;
26177;SDS011;13924;47.670;10.310;2024-01-25T13:13:16;0.7;;;0.6;;
26177;SDS011;13924;47.670;10.310;2024-01-25T13:28:17;1.0;;;0.8;;
26177;SDS011;13924;47.670;10.310;2024-01-25T13:43:19;2.8;;;1.0;;
26177;SDS011;13924;47.670;10.310;2024-01-25T13:58:19;0.9;;;0.9;;
26177;SDS011;13924;47.670;10.310;2024-01-25T14:13:19;2.0;;;1.2;;
26177;SDS011;13924;47.670;10.310;2024-01-25T14:28:19;2.5;;;1.3;;
26177;SDS011;13924;47.670;10.310;2024-01-25T14:43:20;7.1;;;6.5;;
26177;SDS011;13924;47.670;10.310;2024-01-25T14:58:21;5.1;;;1.9;;
26177;SDS011;13924;47.670;10.310;2024-01-25T15:13:22;3.1;;;2.8;;
26177;SDS011;13924;47.670;10.310;2024-01-25T15:28:22;5.8;;;5.2;;
26177;SDS011;13924;47.670;10.310;2024-01-25T15:43:23;5.0;;;4.5;;
26177;SDS011;13924;47.670;10.310;2024-01-25T15:58:24;8.8;;;7.4;;
26177;SDS011;13924;47.670;10.310;2024-01-25T16:13:24;8.6;;;7.1;;
26177;SDS011;13924;47.670;10.310;2024-01-25T16:28:24;10.4;;;7.2;;
26177;SDS011;13924;47.670;10.310;2024-01-25T16:43:25;21.9;;;16.1;;
26177;SDS011;13924;47.670;10.310;2024-01-25T16:58:26;13.4;;;10.5;;
26177;SDS011;13924;47.670;10.310;2024-01-25T17:13:26;17.0;;;13.9;;
26177;SDS011;13924;47.670;10.310;2024-01-25T17:28:28;15.2;;;13.6;;
26177;SDS011;13924;47.670;10.310;2024-01-25T17:43:28;16.7;;;14.4;;
26177;SDS011;13924;47.670;10.310;2024-01-25T17:58:28;43.6;;;25.8;;
26177;SDS011;13924;47.670;10.310;2024-01-25T18:13:30;101.1;;;49.6;;
26177;SDS011;13924;47.670;10.310;2024-01-25T18:28:30;25.8;;;16.2;;
26177;SDS011;13924;47.670;10.310;2024-01-25T18:43:30;20.3;;;15.1;;
26177;SDS011;13924;47.670;10.310;2024-01-25T18:58:31;15.4;;;13.8;;
26177;SDS011;13924;47.670;10.310;2024-01-25T19:13:32;16.9;;;15.2;;
26177;SDS011;13924;47.670;10.310;2024-01-25T19:28:34;34.2;;;27.7;;
26177;SDS011;13924;47.670;10.310;2024-01-25T19:43:33;12.7;;;11.4;;
26177;SDS011;13924;47.670;10.310;2024-01-25T19:58:34;9.7;;;8.8;;
26177;SDS011;13924;47.670;10.310;2024-01-25T20:13:35;9.5;;;8.4;;
26177;SDS011;13924;47.670;10.310;2024-01-25T20:28:35;13.2;;;11.8;;
26177;SDS011;13924;47.670;10.310;2024-01-25T20:43:37;14.3;;;12.4;;
26177;SDS011;13924;47.670;10.310;2024-01-25T20:58:38;12.8;;;11.5;;
26177;SDS011;13924;47.670;10.310;2024-01-25T21:13:39;13.0;;;11.7;;
26177;SDS011;13924;47.670;10.310;2024-01-25T21:28:39;16.2;;;13.4;;
26177;SDS011;13924;47.670;10.310;2024-01-25T21:43:40;15.3;;;11.5;;
26177;SDS011;13924;47.670;10.310;2024-01-25T21:58:40;11.7;;;8.1;;
26177;SDS011;13924;47.670;10.310;2024-01-25T22:13:42;11.5;;;8.6;;
26177;SDS011;13924;47.670;10.310;2024-01-25T22:28:43;8.3;;;7.3;;
26177;SDS011;13924;47.670;10.310;2024-01-25T22:43:43;6.8;;;6.1;;
26177;SDS011;13924;47.670;10.310;2024-01-25T22:58:44;7.8;;;7.0;;
26177;SDS011;13924;47.670;10.310;2024-01-25T23:00:32;7.8;;;6.7;;
26177;SDS011;13924;47.670;10.310;2024-01-25T23:15:34;12.0;;;9.6;;
26177;SDS011;13924;47.670;10.310;2024-01-25T23:30:34;11.7;;;10.5;;
26177;SDS011;13924;47.670;10.310;2024-01-25T23:45:35;9.3;;;7.7;;
